• Join FlightAware (Why Join?)
  • Login
  • US Flag 
02:48PM EDT


 

Airport Tracker/Info


-or-


 

Live Flight TrackerFlight Track Log ✈ UAL785 ✈ 07-Mar-2012 ✈ KLGA - KDEN

Flight Track Log - Related Links

Times and Time Zones

All times are in EST time to prevent confusion due to time zone crossing. See the UAL785 flight status page for this flight to view local times or setup timezone preferences in your user account.

Time Position Orientation Groundspeed Altitude Reporting Facility
EST Latitude Longitude Course Direction KTS MPH feet Rate Location/Type
10:18AM 40.7833 -73.9837 14° North  Level FlightAware Approximate
10:20AM 40.8833 -73.9500 285° West 246 283 4,700  Level New York TRACON
10:21AM 40.9000 -74.0333 285° West 257 296 7,600 2,940 Climbing New York TRACON
10:22AM 40.9167 -74.1167 270° West 254 292 10,600 2,040 Climbing New York TRACON
10:23AM 40.9167 -74.2333 270° West 313 360 11,700 1,800 Climbing New York TRACON
10:24AM 40.9167 -74.3500 270° West 338 389 14,200 2,160 Climbing New York TRACON
10:25AM 40.9167 -74.5219 271° West 365 420 17,000 1,140 Climbing New York Center
10:26AM 40.9189 -74.6486 269° West 377 434 17,000  Level New York Center
10:27AM 40.9175 -74.8078 271° West 394 453 17,000 900 Level New York Center
10:28AM 40.9189 -74.9478 270° West 399 459 18,900 1,680 Climbing New York Center
10:29AM 40.9186 -75.0714 265° West 392 451 20,500 1,560 Climbing New York Center
10:30AM 40.9092 -75.2189 253° West 392 451 22,100 1,800 Climbing New York Center
10:31AM 40.8739 -75.3758 254° West 404 465 24,100 1,620 Climbing New York Center
10:32AM 40.8458 -75.5056 252° West 415 478 25,300 1,260 Climbing New York Center
10:33AM 40.8058 -75.6700 252° West 420 483 26,700 1,200 Climbing New York Center
10:34AM 40.7683 -75.8208 253° West 431 496 27,800 1,020 Climbing New York Center
10:35AM 40.7375 -75.9556 252° West 431 496 28,800 1,200 Climbing New York Center
10:36AM 40.6964 -76.1250 258° West 431 496 30,200 1,320 Climbing New York Center
10:37AM 40.6736 -76.2600 279° West 431 496 31,500 900 Climbing New York Center
10:38AM 40.6947 -76.4314 280° West 424 488 32,000 240 Climbing New York Center
10:39AM 40.7164 -76.5867 283° West 434 499 32,000  Level New York Center
10:40AM 40.7422 -76.7394 280° West 434 499 32,000  Level New York Center
10:41AM 40.7633 -76.8975 281° West 433 498 32,000  Level New York Center
10:42AM 40.7831 -77.0364 281° West 433 498 32,000  Level New York Center
10:43AM 40.8058 -77.1947 280° West 433 498 32,000  Level New York Center
10:44AM 40.8264 -77.3503 281° West 433 498 32,000  Level New York Center
10:45AM 40.8492 -77.5006 280° West 433 498 32,000  Level New York Center
10:47AM 40.8956 -77.8500 280° West 424 488 32,000  Level Cleveland Center
10:48AM 40.9158 -78.0083 280° West 424 488 32,000  Level Cleveland Center
10:49AM 40.9358 -78.1642 278° West 424 488 32,000  Level Cleveland Center
10:50AM 40.9517 -78.3178 279° West 424 488 32,000  Level Cleveland Center
10:51AM 40.9714 -78.4767 277° West 431 496 32,000  Level Cleveland Center
10:52AM 40.9867 -78.6328 276° West 431 496 32,000  Level Cleveland Center
10:53AM 40.9997 -78.7947 278° West 436 502 32,000  Level Cleveland Center
10:54AM 41.0164 -78.9483 278° West 436 502 32,000  Level Cleveland Center
10:55AM 41.0333 -79.1050 277° West 436 502 32,000  Level Cleveland Center
10:56AM 41.0478 -79.2644 277° West 436 502 32,000  Level Cleveland Center
10:57AM 41.0619 -79.4236 277° West 441 507 32,000  Level Cleveland Center
10:58AM 41.0758 -79.5806 277° West 441 507 32,000  Level Cleveland Center
10:59AM 41.0897 -79.7372 277° West 441 507 32,000  Level Cleveland Center
11:00AM 41.1033 -79.8914 278° West 436 502 32,000  Level Cleveland Center
11:01AM 41.1186 -80.0456 276° West 436 502 32,000  Level Cleveland Center
11:02AM 41.1317 -80.2000 276° West 431 496 32,000  Level Cleveland Center
11:03AM 41.1447 -80.3569 276° West 431 496 32,000  Level Cleveland Center
11:04AM 41.1575 -80.5086 276° West 425 489 32,000  Level Cleveland Center
11:05AM 41.1700 -80.6603 275° West 425 489 32,000  Level Cleveland Center
11:06AM 41.1800 -80.8147 276° West 425 489 32,000  Level Cleveland Center
11:07AM 41.1922 -80.9694 276° West 425 489 32,000  Level Cleveland Center
11:08AM 41.2061 -81.1350 276° West 425 489 32,000  Level Cleveland Center
11:09AM 41.2178 -81.2925 277° West 425 489 32,000  Level Cleveland Center
11:10AM 41.2294 -81.4281 277° West 420 483 32,000  Level Cleveland Center
11:11AM 41.2428 -81.5828 275° West 426 490 32,000  Level Cleveland Center
11:12AM 41.2536 -81.7375 275° West 426 490 32,000  Level Cleveland Center
11:13AM 41.2644 -81.8897 276° West 426 490 32,000  Level Cleveland Center
11:14AM 41.2772 -82.0447 274° West 426 490 32,000  Level Cleveland Center
11:15AM 41.2856 -82.2053 275° West 432 497 32,000  Level Cleveland Center
11:16AM 41.2956 -82.3739 275° West 432 497 32,000  Level Cleveland Center
11:17AM 41.3056 -82.5319 275° West 432 497 32,000  Level Cleveland Center
11:18AM 41.3153 -82.6869 275° West 423 487 32,000  Level Cleveland Center
11:19AM 41.3247 -82.8422 275° West 430 495 32,000  Level Cleveland Center
11:20AM 41.3342 -82.9972 275° West 425 489 32,000  Level Cleveland Center
11:21AM 41.3433 -83.1497 275° West 425 489 32,000  Level Cleveland Center
11:22AM 41.3528 -83.2858 274° West 425 489 32,000  Level Cleveland Center
11:23AM 41.3614 -83.4383 274° West 425 489 32,000  Level Cleveland Center
11:24AM 41.3700 -83.5908 275° West 425 489 32,000  Level Cleveland Center
11:25AM 41.3806 -83.7464 274° West 425 489 32,000  Level Cleveland Center
11:26AM 41.3886 -83.9019 274° West 425 489 32,000  Level Cleveland Center
11:27AM 41.3981 -84.0683 274° West 420 483 32,000  Level Cleveland Center
11:30AM 41.4142 -84.4122 274° West 404 465 32,000  Level Chicago Center
11:31AM 41.4228 -84.5614 273° West 404 465 32,000  Level Chicago Center
11:32AM 41.4289 -84.7106 274° West 399 459 32,000  Level Chicago Center
11:33AM 41.4361 -84.8431 273° West 399 459 32,000  Level Chicago Center
11:34AM 41.4419 -84.9922 273° West 399 459 32,000  Level Chicago Center
11:35AM 41.4475 -85.1358 273° West 399 459 32,000  Level Chicago Center
11:36AM 41.4528 -85.2881 273° West 399 459 32,000  Level Chicago Center
11:37AM 41.4586 -85.4539 274° West 405 466 32,000  Level Chicago Center
11:38AM 41.4658 -85.6033 273° West 405 466 32,000  Level Chicago Center
11:39AM 41.4725 -85.7525 274° West 400 460 32,000  Level Chicago Center
11:40AM 41.4792 -85.8992 272° West 400 460 32,000  Level Chicago Center
11:41AM 41.4836 -86.0486 273° West 400 460 32,000  Level Chicago Center
11:42AM 41.4900 -86.2008 272° West 411 473 32,000  Level Chicago Center
11:43AM 41.4936 -86.3336 272° West 411 473 32,000  Level Chicago Center
11:44AM 41.4975 -86.4833 274° West 404 465 32,000  Level Chicago Center
11:45AM 41.5053 -86.6353 272° West 404 465 32,000  Level Chicago Center
11:46AM 41.5086 -86.7822 270° West 404 465 32,000  Level Chicago Center
11:47AM 41.5078 -86.9319 274° West 404 465 32,000  Level Chicago Center
11:48AM 41.5153 -87.0953 272° West 404 465 32,000  Level Chicago Center
11:49AM 41.5183 -87.2478 271° West 399 459 32,000  Level Chicago Center
11:50AM 41.5208 -87.3947 272° West 406 467 32,000  Level Chicago Center
11:51AM 41.5253 -87.5417 270° West 400 460 32,000  Level Chicago Center
11:52AM 41.5256 -87.6886 272° West 400 460 32,000  Level Chicago Center
11:53AM 41.5294 -87.8300 273° West 395 455 32,000  Level Chicago Center
11:54AM 41.5356 -87.9794 270° West 400 460 32,000  Level Chicago Center
11:55AM 41.5353 -88.1239 273° West 394 453 32,000  Level Chicago Center
11:56AM 41.5408 -88.2653 272° West 394 453 32,000  Level Chicago Center
11:57AM 41.5442 -88.4150 271° West 400 460 32,000  Level Chicago Center
11:58AM 41.5453 -88.5508 269° West 410 472 32,000  Level Chicago Center
11:59AM 41.5439 -88.6925 272° West 403 464 32,000  Level Chicago Center
12:00PM 41.5467 -88.8339 271° West 398 458 32,000  Level Chicago Center
12:01PM 41.5494 -88.9864 270° West 387 445 32,000  Level Chicago Center
12:02PM 41.5497 -89.1142 270° West 380 437 32,000  Level Chicago Center
12:03PM 41.5500 -89.2472 271° West 374 430 32,000  Level Chicago Center
12:04PM 41.5522 -89.3889 271° West 374 430 32,000  Level Chicago Center
12:05PM 41.5542 -89.5275 270° West 379 436 32,000  Level Chicago Center
12:06PM 41.5539 -89.6689 271° West 379 436 32,000  Level Chicago Center
12:07PM 41.5556 -89.8050 270° West 379 436 32,000  Level Chicago Center
12:08PM 41.5547 -89.9436 270° West 379 436 32,000  Level Chicago Center
12:09PM 41.5539 -90.0825 271° West 379 436 32,000  Level Chicago Center
12:10PM 41.5550 -90.2239 269° West 384 442 32,000  Level Chicago Center
12:11PM 41.5539 -90.3656 269° West 384 442 32,000  Level Chicago Center
12:12PM 41.5525 -90.5042 270° West 379 436 32,000  Level Chicago Center
12:13PM 41.5531 -90.6539 268° West 379 436 32,000  Level Chicago Center
12:14PM 41.5494 -90.7928 270° West 379 436 32,000  Level Chicago Center
12:15PM 41.5497 -90.9314 269° West 379 436 32,000  Level Chicago Center
12:16PM 41.5478 -91.0589 270° West 384 442 32,000  Level Chicago Center
12:17PM 41.5478 -91.2006 269° West 384 442 32,000  Level Chicago Center
12:18PM 41.5453 -91.3392 269° West 379 436 32,000  Level Chicago Center
12:19PM 41.5431 -91.4722 270° West 379 436 32,000  Level Chicago Center
12:20PM 41.5422 -91.6136 267° West 379 436 32,000  Level Chicago Center
12:21PM 41.5375 -91.7550 270° West 384 442 32,000  Level Chicago Center
12:22PM 41.5367 -91.8881 268° West 379 436 32,000  Level Chicago Center
12:23PM 41.5333 -92.0267 268° West 379 436 32,000  Level Chicago Center
12:24PM 41.5303 -92.1625 269° West 379 436 32,000  Level Chicago Center
12:25PM 41.5289 -92.3011 267° West 379 436 32,000  Level Chicago Center
12:26PM 41.5231 -92.4342 268° West 373 429 32,000  Level Chicago Center
12:27PM 41.5194 -92.5672 269° West 368 423 32,000  Level Chicago Center
12:28PM 41.5178 -92.7003 270° West 363 418 32,000  Level Chicago Center
12:29PM 41.5178 -92.8417 268° West 363 418 32,000  Level Chicago Center
12:31PM 41.5117 -93.1039 268° West 363 418 32,000  Level Minneapolis Center
12:32PM 41.5078 -93.2367 268° West 363 418 32,000 900 Level Minneapolis Center
12:33PM 41.5039 -93.3669 267° West 363 418 33,800 960 Climbing Minneapolis Center
12:34PM 41.4997 -93.4914 269° West 357 411 34,000 60 Climbing Minneapolis Center
12:35PM 41.4975 -93.6186 266° West 352 405 34,000  Level Minneapolis Center
12:36PM 41.4908 -93.7431 267° West 345 397 34,000  Level Minneapolis Center
12:37PM 41.4864 -93.8758 268° West 350 403 34,000  Level Minneapolis Center
12:38PM 41.4836 -94.0003 267° West 350 403 34,000  Level Minneapolis Center
12:39PM 41.4786 -94.1414 265° West 345 397 34,000  Level Minneapolis Center
12:40PM 41.4717 -94.2519 268° West 345 397 34,000  Level Minneapolis Center
12:41PM 41.4686 -94.3764 268° West 345 397 34,000  Level Minneapolis Center
12:42PM 41.4653 -94.5092 265° West 340 391 34,000  Level Minneapolis Center
12:43PM 41.4578 -94.6306 268° West 340 391 34,000  Level Minneapolis Center
12:44PM 41.4544 -94.7494 266° West 333 383 34,000  Level Minneapolis Center
12:45PM 41.4486 -94.8711 266° West 328 377 34,000  Level Minneapolis Center
12:46PM 41.4428 -94.9925 268° West 328 377 34,000  Level Minneapolis Center
12:47PM 41.4389 -95.1169 266° West 328 377 34,000  Level Minneapolis Center
12:48PM 41.4328 -95.2383 266° West 333 383 34,000  Level Minneapolis Center
12:49PM 41.4267 -95.3653 267° West 333 383 34,000  Level Minneapolis Center
12:50PM 41.4222 -95.4897 265° West 333 383 34,000  Level Minneapolis Center
12:51PM 41.4136 -95.6108 272° West 333 383 34,000  Level Minneapolis Center
12:52PM 41.4172 -95.7356 268° West 333 383 34,000  Level Minneapolis Center
12:53PM 41.4147 -95.8569 262° West 333 383 34,000  Level Minneapolis Center
12:54PM 41.4017 -95.9753 268° West 328 377 34,000  Level Minneapolis Center
12:55PM 41.3989 -96.0939 263° West 328 377 34,000  Level Minneapolis Center
12:56PM 41.3875 -96.2094 268° West 328 377 34,000  Level Minneapolis Center
12:57PM 41.3844 -96.3311 262° West 328 377 34,000  Level Minneapolis Center
12:58PM 41.3733 -96.4383 265° West 333 383 34,000  Level Minneapolis Center
12:59PM 41.3658 -96.5567 265° West 327 376 34,000  Level Minneapolis Center
01:00PM 41.3581 -96.6750 265° West 327 376 34,000  Level Minneapolis Center
01:01PM 41.3506 -96.7906 265° West 327 376 34,000  Level Minneapolis Center
01:02PM 41.3425 -96.9117 266° West 327 376 34,000  Level Minneapolis Center
01:03PM 41.3367 -97.0272 266° West 327 376 34,000  Level Minneapolis Center
01:04PM 41.3306 -97.1483 265° West 327 376 34,000  Level Minneapolis Center
01:05PM 41.3225 -97.2667 265° West 327 376 34,000  Level Minneapolis Center
01:06PM 41.3142 -97.3822 269° West 327 376 34,000  Level Minneapolis Center
01:07PM 41.3117 -97.5089 264° West 327 376 34,000  Level Minneapolis Center
01:08PM 41.3031 -97.6242 264° West 327 376 34,000  Level Minneapolis Center
01:09PM 41.2942 -97.7450 264° West 327 376 34,000  Level Minneapolis Center
01:10PM 41.2856 -97.8603 266° West 327 376 34,000  Level Minneapolis Center
01:11PM 41.2786 -97.9786 264° West 327 376 34,000  Level Minneapolis Center
01:12PM 41.2694 -98.0939 265° West 327 376 34,000  Level Minneapolis Center
01:13PM 41.2622 -98.2119 264° West 327 376 34,000  Level Minneapolis Center
01:14PM 41.2531 -98.3297 264° West 327 376 34,000  Level Minneapolis Center
01:16PM 41.2303 -98.6150 259° West 336 387 34,000  Level Denver Center
01:17PM 41.2131 -98.7303 256° West 336 387 34,000  Level Denver Center
01:18PM 41.1917 -98.8461 258° West 336 387 34,000  Level Denver Center
01:19PM 41.1722 -98.9644 256° West 331 381 34,000  Level Denver Center
01:20PM 41.1519 -99.0717 256° West 331 381 34,000  Level Denver Center
01:21PM 41.1289 -99.1983 257° West 326 375 34,000  Level Denver Center
01:22PM 41.1089 -99.3164 256° West 326 375 34,000  Level Denver Center
01:23PM 41.0869 -99.4347 257° West 326 375 34,000  Level Denver Center
01:24PM 41.0653 -99.5583 257° West 340 391 34,000  Level Denver Center
01:25PM 41.0433 -99.6792 257° West 345 397 34,000  Level Denver Center
01:26PM 41.0214 -99.8053 256° West 345 397 34,000  Level Denver Center
01:27PM 40.9992 -99.9258 256° West 345 397 34,000  Level Denver Center
01:28PM 40.9783 -100.0381 256° West 345 397 34,000  Level Denver Center
01:29PM 40.9525 -100.1728 256° West 345 397 34,000  Level Denver Center
01:30PM 40.9297 -100.2931 257° West 345 397 34,000  Level Denver Center
01:31PM 40.9072 -100.4192 255° West 345 397 34,000  Level Denver Center
01:32PM 40.8858 -100.5281 255° West 339 390 34,000  Level Denver Center
01:33PM 40.8608 -100.6542 256° West 351 404 34,000  Level Denver Center
01:34PM 40.8361 -100.7881 255° West 351 404 34,000  Level Denver Center
01:35PM 40.8108 -100.9083 256° West 339 390 34,000  Level Denver Center
01:36PM 40.7875 -101.0336 255° West 351 404 34,000  Level Denver Center
01:37PM 40.7622 -101.1592 254° West 351 404 34,000  Level Denver Center
01:38PM 40.7381 -101.2736 256° West 357 411 34,000  Level Denver Center
01:39PM 40.7128 -101.4097 256° West 363 418 34,000  Level Denver Center
01:40PM 40.6872 -101.5406 255° West 363 418 34,000  Level Denver Center
01:41PM 40.6614 -101.6658 254° West 363 418 34,000  Level Denver Center
01:42PM 40.6367 -101.7769 255° West 363 418 34,000  Level Denver Center
01:43PM 40.6086 -101.9131 256° West 363 418 34,000  Level Denver Center
01:44PM 40.5844 -102.0406 256° West 363 418 34,000 -780 Level Denver Center
01:45PM 40.5619 -102.1622 254° West 357 411 32,500 -1,740 Descending Denver Center
01:46PM 40.5389 -102.2678 255° West 345 397 30,600 -2,040 Descending Denver Center
01:47PM 40.5122 -102.3950 255° West 335 386 28,500 -2,160 Descending Denver Center
01:48PM 40.4889 -102.5083 253° West 323 372 26,300 -2,100 Descending Denver Center
01:49PM 40.4636 -102.6192 258° West 328 377 24,400 -1,920 Descending Denver Center
01:50PM 40.4461 -102.7239 256° West 328 377 22,500 -2,100 Descending Denver Center
01:51PM 40.4247 -102.8369 254° West 321 369 20,300 -1,800 Descending Denver Center
01:52PM 40.4008 -102.9444 253° West 321 369 19,000 -660 Descending Denver Center
01:53PM 40.3750 -103.0578 255° West 326 375 19,000  Level Denver Center
01:54PM 40.3494 -103.1817 254° West 326 375 19,000  Level Denver Center
01:55PM 40.3236 -103.2972 255° West 326 375 19,000  Level Denver Center
01:56PM 40.2997 -103.4156 255° West 326 375 19,000  Level Denver Center
01:57PM 40.2756 -103.5311 253° West 326 375 19,000  Level Denver Center
01:58PM 40.2492 -103.6436 253° West 326 375 19,000  Level Denver Center
01:59PM 40.2228 -103.7589 251° West 326 375 19,000 -300 Level Denver Center
02:00PM 40.1958 -103.8606 239° Southwest 314 361 18,500 -1,140 Descending Denver Center
02:01PM 40.1542 -103.9519 237° Southwest 296 341 16,800 -1,740 Descending Denver Center
02:02PM 40.1122 -104.0378 237° Southwest 290 334 15,100 -1,620 Descending Denver Center
02:03PM 40.0742 -104.1150 239° Southwest 285 328 13,600 -1,020 Descending Denver Center
02:04PM 40.0361 -104.1978 238° Southwest 275 316 13,100 -300 Descending Denver Center
02:05PM 39.9961 -104.2803 239° Southwest 280 322 13,100  Level Denver Center
02:06PM 39.9561 -104.3656 240° Southwest 286 329 13,100 -120 Level Denver Center
02:07PM 39.9333 -104.4167 232° Southwest 279 321 13,000 -960 Descending Denver TRACON
02:08PM 39.8833 -104.5000 191° South 276 318 11,700 -1,020 Descending Denver TRACON
02:09PM 39.8167 -104.5167 194° South 236 272 11,000 -360 Descending Denver TRACON
02:10PM 39.7667 -104.5333 180° South 221 254 11,000 -960 Level Denver TRACON
02:11PM 39.7000 -104.5333 180° South 210 242 9,100 -960 Descending Denver TRACON
02:12PM 39.6333 -104.5333 194° South 231 266 9,100 -60 Level Denver TRACON
02:13PM 39.5833 -104.5500 191° South 227 261 9,000  Descending Denver TRACON
02:14PM 39.5167 -104.5667 285° West 228 262 9,100  Climbing Denver TRACON
02:15PM 39.5333 -104.6500 360° North 236 272 9,000 -60 Descending Denver TRACON
02:16PM 39.6000 -104.6500 360° North 231 266 9,000  Level Denver TRACON
02:17PM 39.6667 -104.6500 360° North 229 264 9,000 -660 Level Denver TRACON
02:18PM 39.7167 -104.6500 360° North 190 219 7,700 -1,200 Descending Denver TRACON